Corpus Christi, TX

5:01 PM CDT on August 31, 2015 (GMT -0500)
Texas State Aquarium | | Change Station
CLOSE
Current Station
Personal Weather Station
Location: Corpus Christi, TX
Elevation: 36 ft
Nearby Weather Stations

Elev 36 ft 27.81 °N, 97.39 °W | Updated 17 seconds ago

Thunderstorm
Thunderstorm
84.9 °F
Feels Like 97 °F
N
6.1
Wind Variable Wind from East
Gusts 6.1 mph

Today
High -- | Low -- °F
--% Chance of Precip.
Yesterday
High -- | Low -- °F
Precip. -- in
7:07 AM 7:51 PM
Waning Gibbous, 93% visible
Pressure 29.95 in
Visibility 10.0 miles
Clouds Few 1800 ft
Few 4000 ft
Mostly Cloudy 19000 ft
Mostly Cloudy 25000 ft
Heat Index 97 °F
Dew Point 78 °F
Humidity 81%
Rainfall in
Snow Depth Not available.
UV 1.0 out of 12
Pollen 7.00 out of 12
Air Quality Not available.
Flu Activity Not available.
METAR KCRP 312151Z COR 13013KT 10SM FEW018 FEW040 BKN190 BKN250 28/24 A2995 RMK AO2 RAE30 TSE09 SLP141 TS DSIPT CB DSNT SW-W TCU DSNT E S P0008 T02830239
Pressure 29.95 in
Visibility 10.0 miles
Clouds Few 1800 ft
Few 4000 ft
Mostly Cloudy 19000 ft
Mostly Cloudy 25000 ft
Heat Index 97 °F
Dew Point 78 °F
Humidity 81%
Rainfall in
Snow Depth Not available.
UV 1.0 out of 12
Pollen 7.00 out of 12
Air Quality Not available.
Flu Activity Not available.
METAR KCRP 312151Z COR 13013KT 10SM FEW018 FEW040 BKN190 BKN250 28/24 A2995 RMK AO2 RAE30 TSE09 SLP141 TS DSIPT CB DSNT SW-W TCU DSNT E S P0008 T02830239

10-Day Weather Forecast

×

Almanac

Astronomy

Aug. 31, 2015 Rise Set
Actual Time
Civil Twilight
Nautical Twilight
Astronomical Twilight
Moon
Length of Visible Light
Length of Day
Tomorrow will be .
, % of the Moon is Illuminated

Today's Extremes

State Highs State Lows

Community

WunderPhotos

Upload Photos

1,851,389 photos uploaded!

WunderBlogs® & News

Nearby

Air Quality

  Air Quality AQ Index Pollutant
Not available.

Snow Depth

Station Depth Elevation

Earthquake Activity

City Distance Mag. Time & Date
Minimum magnitude displayed is 2.5.

Coastal Water Temperatures

Place Temperature

Stations

Nearby Weather Stations

Station Location Temp. Windchill Dew Point Humidity Wind Precip. Elev Updated Type